Time;durP1;ratioP1;P1;durP2;ratioP2;P2;SDS_P1;SDS_P2;PMS_P1;PMS_P2;Temp;Humidity;BMP_temperature;BMP_pressure;BME280_temperature;BME280_humidity;BME280_pressure;Samples;Min_cycle;Max_cycle;Signal;HPM_P1;HPM_P2
2022/07/27 00:02:06;;;;;;;8.00;1.60;;;14.90;99.90;;;;;;5101350;27;20087;-74
2022/07/27 00:04:32;;;;;;;5.63;1.48;;;15.00;99.90;;;;;;5101791;27;20035;-76
2022/07/27 00:06:58;;;;;;;5.05;1.30;;;15.00;99.90;;;;;;5097663;27;20113;-74
2022/07/27 00:09:23;;;;;;;4.55;1.10;;;15.00;99.90;;;;;;5099311;27;21101;-76
2022/07/27 00:11:49;;;;;;;11.88;1.50;;;14.90;99.90;;;;;;5095597;27;20134;-74
2022/07/27 00:14:15;;;;;;;9.10;1.40;;;15.00;99.90;;;;;;5105356;27;20117;-74
2022/07/27 00:16:40;;;;;;;7.57;1.73;;;15.00;99.90;;;;;;5084513;27;20099;-75
2022/07/27 00:19:06;;;;;;;5.72;1.25;;;14.90;99.90;;;;;;5078920;27;20084;-75
2022/07/27 00:21:35;;;;;;;5.65;1.38;;;14.90;99.90;;;;;;5080433;27;20089;-74
2022/07/27 00:24:01;;;;;;;9.80;1.25;;;14.90;99.90;;;;;;5083512;27;20355;-74
2022/07/27 00:26:26;;;;;;;2.67;1.00;;;15.00;99.90;;;;;;5080850;27;20035;-74
2022/07/27 00:28:52;;;;;;;8.95;1.20;;;14.90;99.90;;;;;;5098598;27;20043;-73
2022/07/27 00:31:17;;;;;;;7.75;1.40;;;14.90;99.90;;;;;;5077315;27;20039;-74
2022/07/27 00:33:43;;;;;;;5.63;1.02;;;14.90;99.90;;;;;;5077517;27;20043;-74
2022/07/27 00:36:09;;;;;;;8.57;1.48;;;14.90;99.90;;;;;;5084324;27;20055;-74
2022/07/27 00:38:35;;;;;;;5.10;1.08;;;14.90;99.90;;;;;;5094246;27;20126;-75
2022/07/27 00:41:01;;;;;;;6.57;1.40;;;14.90;99.90;;;;;;5098603;27;21251;-74
2022/07/27 00:43:26;;;;;;;7.43;1.48;;;14.80;99.90;;;;;;5094956;27;20045;-73
2022/07/27 00:45:52;;;;;;;5.20;1.35;;;14.80;99.90;;;;;;5080792;27;20142;-74
2022/07/27 00:48:18;;;;;;;6.88;1.30;;;14.70;99.90;;;;;;5093984;27;20071;-74
2022/07/27 00:50:45;;;;;;;8.93;1.67;;;14.60;99.90;;;;;;5093995;27;20386;-75
2022/07/27 00:53:11;;;;;;;6.38;1.30;;;14.50;99.90;;;;;;5079757;27;21659;-74
2022/07/27 00:55:38;;;;;;;5.55;1.50;;;14.50;99.90;;;;;;5102624;28;20062;-73
2022/07/27 00:58:07;;;;;;;8.65;1.40;;;14.50;99.90;;;;;;5094436;27;20418;-75
2022/07/27 01:00:36;;;;;;;6.57;1.25;;;14.40;99.90;;;;;;5081046;27;20054;-74
2022/07/27 01:03:05;;;;;;;8.52;1.67;;;14.40;99.90;;;;;;5096842;28;20043;-74
2022/07/27 01:05:34;;;;;;;11.60;1.77;;;14.40;99.90;;;;;;5075348;27;20127;-74
2022/07/27 01:07:59;;;;;;;11.93;1.65;;;14.30;99.90;;;;;;5099272;27;20046;-75
2022/07/27 01:10:25;;;;;;;11.23;1.70;;;14.30;99.90;;;;;;5094756;28;20039;-75
2022/07/27 01:12:51;;;;;;;14.13;2.00;;;14.30;99.90;;;;;;5075800;28;20203;-75
2022/07/27 01:15:16;;;;;;;11.73;1.55;;;14.30;99.90;;;;;;5098246;28;20043;-74
2022/07/27 01:17:42;;;;;;;8.73;1.63;;;14.30;99.90;;;;;;5097704;28;20023;-75
2022/07/27 01:20:08;;;;;;;8.15;1.60;;;14.30;99.90;;;;;;5080623;28;20051;-74
2022/07/27 01:22:34;;;;;;;7.75;1.50;;;14.30;99.90;;;;;;5107419;27;20023;-74
2022/07/27 01:24:59;;;;;;;7.63;1.45;;;14.40;99.90;;;;;;5099581;27;20089;-75
2022/07/27 01:27:25;;;;;;;10.43;1.52;;;14.50;99.90;;;;;;5105153;27;20051;-75
2022/07/27 01:29:51;;;;;;;9.73;1.58;;;14.50;99.90;;;;;;5102276;27;20050;-74
2022/07/27 01:32:16;;;;;;;11.50;1.75;;;14.50;99.90;;;;;;5102445;27;20412;-75
2022/07/27 01:34:42;;;;;;;7.15;1.45;;;14.50;99.90;;;;;;5103310;27;20492;-74
2022/07/27 01:37:08;;;;;;;7.68;1.60;;;14.50;99.90;;;;;;5106283;27;20499;-75
2022/07/27 01:39:33;;;;;;;10.23;1.70;;;14.50;99.90;;;;;;5103148;27;20095;-74
2022/07/27 01:42:00;;;;;;;6.75;1.73;;;14.50;99.90;;;;;;5101153;27;20038;-74
2022/07/27 01:44:26;;;;;;;5.68;1.58;;;14.40;99.90;;;;;;5098625;27;20039;-75
2022/07/27 01:46:51;;;;;;;11.85;1.80;;;14.40;99.90;;;;;;5101392;27;20039;-75
2022/07/27 01:49:17;;;;;;;9.57;1.83;;;14.30;99.90;;;;;;5103171;27;20034;-75
2022/07/27 01:51:43;;;;;;;12.85;1.60;;;14.30;99.90;;;;;;5082321;27;20072;-74
2022/07/27 01:54:08;;;;;;;7.07;1.60;;;14.20;99.90;;;;;;5097540;27;20066;-75
2022/07/27 01:56:34;;;;;;;6.45;1.90;;;14.20;99.90;;;;;;5102290;27;20078;-74
2022/07/27 01:59:00;;;;;;;7.68;2.15;;;14.10;99.90;;;;;;5103234;27;20570;-75
2022/07/27 02:01:25;;;;;;;9.35;1.70;;;14.10;99.90;;;;;;5100826;27;20028;-74
2022/07/27 02:03:51;;;;;;;14.05;1.70;;;14.10;99.90;;;;;;5098509;27;20050;-74
2022/07/27 02:06:17;;;;;;;9.07;1.70;;;14.10;99.90;;;;;;5096795;27;20116;-74
2022/07/27 02:08:42;;;;;;;10.35;2.10;;;14.00;99.90;;;;;;5098786;27;20169;-73
2022/07/27 02:13:52;;;;;;;10.50;1.60;;;14.00;99.90;;;;;;5102889;27;20035;-74
2022/07/27 02:16:19;;;;;;;8.98;2.00;;;13.90;99.90;;;;;;5103477;27;20061;-75
2022/07/27 02:18:45;;;;;;;12.52;2.00;;;13.90;99.90;;;;;;5079989;27;20039;-74
2022/07/27 02:21:10;;;;;;;5.85;1.85;;;13.90;99.90;;;;;;5085408;27;20159;-74
2022/07/27 02:23:37;;;;;;;7.10;1.63;;;13.90;99.90;;;;;;5083377;27;20106;-75
2022/07/27 02:26:05;;;;;;;7.57;1.88;;;13.80;99.90;;;;;;5098853;27;20069;-75
2022/07/27 02:28:31;;;;;;;6.20;1.65;;;13.80;99.90;;;;;;5086768;27;20051;-75
2022/07/27 02:30:56;;;;;;;9.68;1.88;;;13.80;99.90;;;;;;5080905;27;20058;-74
2022/07/27 02:33:22;;;;;;;9.15;1.80;;;13.80;99.90;;;;;;5103755;27;20027;-74
2022/07/27 02:35:47;;;;;;;10.45;1.88;;;13.80;99.90;;;;;;5079866;27;20061;-74
2022/07/27 02:38:13;;;;;;;7.50;1.80;;;13.80;99.90;;;;;;5094651;27;20398;-74
2022/07/27 02:40:39;;;;;;;6.75;1.88;;;13.80;99.90;;;;;;5096097;27;20042;-74
2022/07/27 02:43:04;;;;;;;10.98;1.90;;;13.80;99.90;;;;;;5082931;27;20070;-73
2022/07/27 02:45:30;;;;;;;8.27;2.03;;;13.90;99.90;;;;;;5097871;27;20118;-75
2022/07/27 02:47:56;;;;;;;11.05;1.90;;;13.90;99.90;;;;;;5086976;27;20035;-76
2022/07/27 02:50:21;;;;;;;10.45;2.33;;;14.00;99.90;;;;;;5099027;27;20054;-74
2022/07/27 02:52:47;;;;;;;9.25;2.25;;;13.90;99.90;;;;;;5095309;27;20141;-74
2022/07/27 02:55:12;;;;;;;10.90;1.80;;;13.90;99.90;;;;;;5098893;27;20370;-74
2022/07/27 02:57:39;;;;;;;9.05;1.90;;;13.90;99.90;;;;;;5104921;27;20113;-75
2022/07/27 03:00:11;;;;;;;8.43;1.60;;;13.90;99.90;;;;;;5107693;27;20027;-74
2022/07/27 03:02:38;;;;;;;9.50;1.90;;;13.90;99.90;;;;;;5105073;27;20039;-73
2022/07/27 03:05:05;;;;;;;8.32;1.75;;;14.00;99.90;;;;;;5087089;27;20065;-74
2022/07/27 03:07:31;;;;;;;5.57;1.67;;;14.00;99.90;;;;;;5084721;27;20057;-73
2022/07/27 03:09:57;;;;;;;12.20;1.70;;;14.00;99.90;;;;;;5082943;27;20839;-74
2022/07/27 03:12:22;;;;;;;9.60;1.70;;;14.20;99.90;;;;;;5101110;27;20100;-75
2022/07/27 03:14:48;;;;;;;9.80;1.98;;;14.20;99.90;;;;;;5078480;27;20470;-74
2022/07/27 03:17:14;;;;;;;12.07;1.77;;;14.20;99.90;;;;;;5089591;28;20036;-74
2022/07/27 03:19:39;;;;;;;9.32;1.67;;;14.20;99.90;;;;;;5099013;27;21742;-74
2022/07/27 03:22:05;;;;;;;12.77;2.00;;;14.20;99.90;;;;;;5096212;27;20054;-74
2022/07/27 03:24:30;;;;;;;10.43;2.00;;;14.30;99.90;;;;;;5077695;27;20519;-74
2022/07/27 03:26:56;;;;;;;11.35;2.00;;;14.30;99.90;;;;;;5101292;27;20044;-75
2022/07/27 03:29:22;;;;;;;10.85;2.00;;;14.20;99.90;;;;;;5088468;27;20057;-75
2022/07/27 03:31:47;;;;;;;7.43;1.65;;;14.30;99.90;;;;;;5101125;27;20065;-74
2022/07/27 03:34:13;;;;;;;12.05;1.83;;;14.50;99.90;;;;;;5077725;27;20035;-75
2022/07/27 03:36:39;;;;;;;11.77;2.40;;;14.30;99.90;;;;;;5083846;27;20035;-75
2022/07/27 03:39:04;;;;;;;12.93;2.83;;;14.20;99.90;;;;;;5101759;27;20031;-75
2022/07/27 03:41:30;;;;;;;6.95;1.63;;;14.30;99.90;;;;;;5095435;27;20041;-75
2022/07/27 03:43:56;;;;;;;8.43;1.92;;;14.30;99.90;;;;;;5065285;27;20062;-74
2022/07/27 03:46:22;;;;;;;15.25;2.20;;;14.30;99.90;;;;;;5111105;27;20038;-75
2022/07/27 03:48:48;;;;;;;7.80;1.95;;;14.20;99.90;;;;;;5081001;27;20122;-75
2022/07/27 03:51:13;;;;;;;11.15;2.08;;;14.20;99.90;;;;;;5096211;27;20488;-74
2022/07/27 03:53:39;;;;;;;10.50;1.90;;;14.10;99.90;;;;;;5099606;27;20518;-75
2022/07/27 03:56:04;;;;;;;14.23;2.45;;;14.10;99.90;;;;;;5080882;27;20056;-74
2022/07/27 03:58:30;;;;;;;9.25;2.10;;;14.10;99.90;;;;;;5098052;27;20243;-73
2022/07/27 04:00:56;;;;;;;10.65;2.40;;;14.10;99.90;;;;;;5095203;27;20066;-74
2022/07/27 04:03:21;;;;;;;11.32;2.22;;;14.10;99.90;;;;;;5101858;27;20105;-75
2022/07/27 04:05:47;;;;;;;7.55;2.22;;;14.20;99.90;;;;;;5099868;27;21303;-75
2022/07/27 04:08:13;;;;;;;8.70;1.83;;;14.10;99.90;;;;;;5092779;27;20035;-74
2022/07/27 04:10:38;;;;;;;6.80;2.05;;;14.20;99.90;;;;;;5079274;27;20092;-75
2022/07/27 04:13:07;;;;;;;14.45;2.17;;;14.10;99.90;;;;;;5120273;27;20071;-73
2022/07/27 04:15:35;;;;;;;7.15;1.95;;;14.10;99.90;;;;;;5099904;27;21509;-75
2022/07/27 04:18:01;;;;;;;10.07;2.22;;;14.10;99.90;;;;;;5099747;27;20072;-74
2022/07/27 04:20:27;;;;;;;12.02;2.25;;;14.10;99.90;;;;;;5103511;27;20061;-74
2022/07/27 04:22:52;;;;;;;13.13;1.80;;;14.10;99.90;;;;;;5081811;27;20062;-74
2022/07/27 04:25:18;;;;;;;10.68;2.10;;;14.10;99.90;;;;;;5100311;27;20531;-75
2022/07/27 04:27:44;;;;;;;13.27;2.20;;;14.10;99.90;;;;;;5080110;27;20130;-74
2022/07/27 04:30:10;;;;;;;12.52;2.17;;;14.20;99.90;;;;;;5099014;27;20050;-75
2022/07/27 04:32:36;;;;;;;12.10;2.28;;;14.10;99.90;;;;;;5096505;27;20165;-74
2022/07/27 04:35:02;;;;;;;12.07;2.20;;;14.10;99.90;;;;;;5075544;27;20062;-72
2022/07/27 04:37:29;;;;;;;12.43;1.80;;;14.10;99.90;;;;;;5086200;27;20448;-74
2022/07/27 04:39:57;;;;;;;9.43;1.70;;;14.10;99.90;;;;;;5101484;28;20038;-75
2022/07/27 04:42:23;;;;;;;7.70;2.30;;;14.10;99.90;;;;;;5094126;27;20847;-74
2022/07/27 04:44:49;;;;;;;8.57;2.17;;;14.10;99.90;;;;;;5082398;27;20127;-75
2022/07/27 04:47:15;;;;;;;9.32;2.30;;;14.20;99.90;;;;;;5075801;27;20134;-75
2022/07/27 04:49:40;;;;;;;6.38;1.80;;;14.10;99.90;;;;;;5094552;27;20390;-75
2022/07/27 04:52:06;;;;;;;14.27;2.10;;;14.20;99.90;;;;;;5093384;27;20059;-75
2022/07/27 04:54:35;;;;;;;8.23;2.00;;;14.10;99.90;;;;;;5099484;27;20135;-74
2022/07/27 04:57:00;;;;;;;13.27;2.60;;;14.20;99.90;;;;;;5115459;27;20092;-75
2022/07/27 04:59:27;;;;;;;9.75;2.08;;;14.20;99.90;;;;;;5090100;27;20039;-74
2022/07/27 05:01:53;;;;;;;10.48;2.17;;;14.20;99.90;;;;;;5102272;27;20038;-74
2022/07/27 05:04:18;;;;;;;7.30;2.55;;;14.30;99.90;;;;;;5096348;28;20035;-74
2022/07/27 05:06:45;;;;;;;8.30;2.13;;;14.30;99.90;;;;;;5076364;27;20120;-74
2022/07/27 05:09:11;;;;;;;9.65;2.33;;;14.30;99.90;;;;;;5098652;28;20043;-75
2022/07/27 05:11:37;;;;;;;12.98;2.30;;;14.30;99.90;;;;;;5075224;28;20460;-75
2022/07/27 05:14:02;;;;;;;7.43;1.92;;;14.40;99.90;;;;;;5099360;28;20050;-77
2022/07/27 05:16:28;;;;;;;6.55;1.80;;;14.50;99.90;;;;;;5116493;28;20043;-76
2022/07/27 05:18:54;;;;;;;9.27;2.20;;;14.40;99.90;;;;;;5081226;28;20066;-74
2022/07/27 05:21:20;;;;;;;6.75;1.58;;;14.50;99.90;;;;;;5103585;28;20047;-74
2022/07/27 05:23:45;;;;;;;4.45;1.50;;;14.40;99.90;;;;;;5105461;28;20069;-75
2022/07/27 05:26:11;;;;;;;10.77;1.90;;;14.50;99.90;;;;;;5097863;28;20103;-75
2022/07/27 05:28:36;;;;;;;6.88;2.05;;;14.40;99.90;;;;;;5075529;28;20077;-76
2022/07/27 05:31:02;;;;;;;14.38;2.22;;;14.40;99.90;;;;;;5090478;28;20097;-77
2022/07/27 05:33:28;;;;;;;11.57;1.58;;;14.40;99.90;;;;;;5080962;28;20054;-75
2022/07/27 05:35:55;;;;;;;8.10;1.92;;;14.30;99.90;;;;;;5095672;28;20099;-75
2022/07/27 05:38:21;;;;;;;13.27;2.20;;;14.50;99.90;;;;;;5111964;27;20047;-76
2022/07/27 05:40:47;;;;;;;10.73;1.95;;;14.50;99.90;;;;;;5094223;28;20161;-76
2022/07/27 05:43:12;;;;;;;13.73;2.30;;;14.50;99.90;;;;;;5098028;28;20103;-74
2022/07/27 05:45:38;;;;;;;14.75;2.10;;;14.50;99.90;;;;;;5099288;28;20040;-74
2022/07/27 05:48:04;;;;;;;8.57;2.42;;;14.60;99.90;;;;;;5124011;28;20043;-74
2022/07/27 05:50:30;;;;;;;18.02;2.17;;;14.60;99.90;;;;;;5105739;28;20043;-74
2022/07/27 05:52:57;;;;;;;7.50;1.77;;;14.80;99.90;;;;;;5105855;28;20046;-73
2022/07/27 05:55:23;;;;;;;13.18;1.92;;;14.80;99.90;;;;;;5094208;28;20070;-74
2022/07/27 05:57:49;;;;;;;11.95;1.83;;;14.90;99.90;;;;;;5095337;28;20055;-75
2022/07/27 06:00:15;;;;;;;7.00;2.05;;;15.00;99.90;;;;;;5096473;28;20063;-74
2022/07/27 06:02:41;;;;;;;15.55;2.72;;;15.10;99.90;;;;;;5079037;28;20044;-75
2022/07/27 06:05:07;;;;;;;9.48;2.00;;;15.30;99.90;;;;;;5094340;28;20059;-75
2022/07/27 06:10:17;;;;;;;9.77;2.10;;;15.50;99.90;;;;;;5118415;27;20052;-75
2022/07/27 06:12:44;;;;;;;10.10;2.33;;;15.60;99.90;;;;;;5100673;27;20050;-76
2022/07/27 06:15:11;;;;;;;10.20;2.08;;;15.60;99.90;;;;;;5080504;27;20105;-75
2022/07/27 06:17:37;;;;;;;8.43;2.00;;;15.70;99.90;;;;;;5101445;27;20061;-75
2022/07/27 06:20:05;;;;;;;11.55;1.85;;;15.70;99.90;;;;;;5098896;27;20486;-77
2022/07/27 06:22:30;;;;;;;8.75;1.85;;;15.80;99.90;;;;;;5087988;27;20074;-79
2022/07/27 06:24:56;;;;;;;13.05;2.30;;;15.80;99.90;;;;;;5083715;27;20074;-77
2022/07/27 06:27:22;;;;;;;11.90;2.15;;;15.80;99.90;;;;;;5094722;27;20059;-75
2022/07/27 06:29:50;;;;;;;13.93;2.08;;;15.90;99.90;;;;;;5104487;27;20051;-75
2022/07/27 06:32:16;;;;;;;13.60;1.85;;;16.00;99.90;;;;;;5082314;27;20073;-75
2022/07/27 06:34:42;;;;;;;12.68;2.17;;;16.00;99.90;;;;;;5105018;27;20047;-75
2022/07/27 06:37:07;;;;;;;8.38;1.77;;;16.00;99.90;;;;;;5102319;27;20047;-77
2022/07/27 06:39:36;;;;;;;12.40;2.03;;;16.00;99.90;;;;;;5118595;27;20046;-76
2022/07/27 06:42:02;;;;;;;9.80;1.92;;;16.00;99.90;;;;;;5099714;27;20036;-76
2022/07/27 06:44:27;;;;;;;9.82;1.95;;;16.10;99.90;;;;;;5098560;27;20043;-73
2022/07/27 06:46:53;;;;;;;8.48;1.70;;;16.10;99.90;;;;;;5095230;27;20043;-79
2022/07/27 06:49:19;;;;;;;15.95;2.00;;;16.20;99.90;;;;;;5099993;27;20047;-78
2022/07/27 06:51:44;;;;;;;8.63;1.63;;;16.20;99.90;;;;;;5091641;27;21065;-77
2022/07/27 06:54:10;;;;;;;6.95;1.35;;;16.20;99.90;;;;;;5094167;27;20051;-78
2022/07/27 06:56:37;;;;;;;9.82;1.70;;;16.30;99.90;;;;;;5079934;27;20051;-77
2022/07/27 06:59:02;;;;;;;6.07;1.45;;;16.30;99.90;;;;;;5105293;27;20470;-78
2022/07/27 07:01:28;;;;;;;11.80;2.05;;;16.40;99.90;;;;;;5106401;27;20031;-76
2022/07/27 07:03:54;;;;;;;12.98;2.35;;;16.40;99.90;;;;;;5091485;27;20039;-74
2022/07/27 07:06:20;;;;;;;22.05;4.68;;;16.50;99.90;;;;;;5102851;27;20619;-79
2022/07/27 07:08:46;;;;;;;7.35;1.35;;;16.60;99.90;;;;;;5091045;27;20032;-78
2022/07/27 07:11:12;;;;;;;14.77;1.98;;;16.70;99.90;;;;;;5112258;27;20050;-77
2022/07/27 07:13:58;;;;;;;10.43;1.60;;;16.80;99.90;;;;;;5085330;27;20051;-76
2022/07/27 07:16:24;;;;;;;7.35;1.38;;;16.90;99.90;;;;;;5103490;27;20043;-74
2022/07/27 07:18:49;;;;;;;10.57;1.77;;;16.90;99.90;;;;;;5087987;27;20120;-75
2022/07/27 07:21:15;;;;;;;13.25;1.60;;;17.00;99.90;;;;;;5088736;27;20071;-76
2022/07/27 07:23:41;;;;;;;10.02;1.35;;;17.00;99.90;;;;;;5086342;27;20126;-76
2022/07/27 07:26:07;;;;;;;9.43;1.55;;;17.10;99.90;;;;;;5088462;27;20603;-76
2022/07/27 07:28:35;;;;;;;6.38;1.40;;;17.10;99.90;;;;;;5103404;27;20034;-76
2022/07/27 07:31:03;;;;;;;8.65;1.77;;;17.10;99.90;;;;;;5085917;27;20047;-77
2022/07/27 07:33:29;;;;;;;9.30;1.50;;;17.10;99.90;;;;;;5087407;27;20047;-76
2022/07/27 07:35:54;;;;;;;6.63;1.58;;;17.00;99.90;;;;;;5105083;27;20039;-79
2022/07/27 07:38:20;;;;;;;10.82;1.52;;;16.90;99.90;;;;;;5121929;27;20027;-77
2022/07/27 07:40:45;;;;;;;7.00;1.63;;;16.60;99.90;;;;;;5082301;27;20368;-78
2022/07/27 07:43:12;;;;;;;6.72;1.50;;;16.40;99.90;;;;;;5108052;27;20043;-77
2022/07/27 07:45:39;;;;;;;6.13;1.63;;;16.40;99.90;;;;;;5099216;27;20159;-77
2022/07/27 07:48:06;;;;;;;8.02;1.70;;;16.40;99.90;;;;;;5082202;27;20059;-76
2022/07/27 07:50:32;;;;;;;11.02;2.05;;;16.20;99.90;;;;;;5084036;27;20050;-78
2022/07/27 07:52:58;;;;;;;9.60;1.80;;;16.10;99.90;;;;;;5070227;27;20043;-76
2022/07/27 07:55:26;;;;;;;10.10;2.28;;;15.80;99.90;;;;;;5100316;27;20058;-78
2022/07/27 07:57:52;;;;;;;6.65;1.77;;;15.80;99.90;;;;;;5085242;27;20432;-77
2022/07/27 08:00:19;;;;;;;8.75;1.63;;;15.60;99.90;;;;;;5104056;27;20035;-77
2022/07/27 08:02:47;;;;;;;12.05;2.17;;;15.60;99.90;;;;;;5092320;27;20339;-76
2022/07/27 08:05:13;;;;;;;11.30;2.05;;;15.60;99.90;;;;;;5108077;27;20126;-76
2022/07/27 08:07:40;;;;;;;8.23;1.70;;;15.70;99.90;;;;;;5085170;27;20293;-76
2022/07/27 08:10:07;;;;;;;7.80;1.48;;;15.70;99.90;;;;;;5104074;27;21670;-76
2022/07/27 08:12:39;;;;;;;8.98;1.92;;;15.70;99.90;;;;;;5105920;27;20110;-77
2022/07/27 08:15:06;;;;;;;7.72;1.45;;;15.80;99.90;;;;;;5087508;27;20043;-78
2022/07/27 08:17:32;;;;;;;7.65;1.27;;;15.90;99.90;;;;;;5101836;27;20039;-76
2022/07/27 08:19:58;;;;;;;7.45;1.45;;;15.90;99.90;;;;;;5096826;28;20445;-75
2022/07/27 08:22:24;;;;;;;8.15;1.65;;;16.00;99.90;;;;;;5100222;27;20103;-76
2022/07/27 08:24:49;;;;;;;6.78;1.67;;;16.10;99.90;;;;;;5083014;27;20057;-76
2022/07/27 08:27:16;;;;;;;8.70;1.65;;;16.20;99.90;;;;;;5101842;27;20531;-75
2022/07/27 08:29:41;;;;;;;10.30;1.75;;;16.30;99.90;;;;;;5103896;27;20047;-77
2022/07/27 08:32:08;;;;;;;10.07;2.33;;;16.50;99.90;;;;;;5107722;27;20038;-76
2022/07/27 08:34:36;;;;;;;13.32;1.67;;;16.50;99.90;;;;;;5089040;27;20489;-75
2022/07/27 08:37:03;;;;;;;6.22;1.65;;;16.60;99.90;;;;;;5093605;27;20110;-77
2022/07/27 08:39:30;;;;;;;5.72;1.00;;;16.60;99.90;;;;;;5105105;28;20123;-77
2022/07/27 08:41:59;;;;;;;10.27;1.40;;;16.80;99.90;;;;;;5083896;27;20080;-78
2022/07/27 08:44:28;;;;;;;4.90;1.15;;;16.90;99.90;;;;;;5086786;27;20183;-78
2022/07/27 08:46:56;;;;;;;4.28;1.10;;;17.10;99.90;;;;;;5089103;27;20039;-76
2022/07/27 08:49:22;;;;;;;7.68;1.60;;;17.30;99.90;;;;;;5090380;27;20092;-75
2022/07/27 08:51:48;;;;;;;9.25;1.30;;;17.50;99.90;;;;;;5100070;27;20098;-75
2022/07/27 08:54:15;;;;;;;6.85;1.38;;;17.80;99.90;;;;;;5089782;27;20047;-75
2022/07/27 08:56:40;;;;;;;5.20;1.30;;;17.80;99.90;;;;;;5086703;27;20054;-75
2022/07/27 08:59:06;;;;;;;9.23;1.70;;;17.90;99.90;;;;;;5087059;27;20470;-75
2022/07/27 09:01:36;;;;;;;6.90;1.25;;;18.10;99.90;;;;;;5080967;28;20146;-75
2022/07/27 09:04:06;;;;;;;6.38;1.27;;;18.10;99.90;;;;;;5103323;27;20043;-78
2022/07/27 09:06:44;;;;;;;4.03;1.20;;;18.30;99.90;;;;;;5082877;27;20135;-78
2022/07/27 09:09:12;;;;;;;3.42;1.05;;;18.30;99.90;;;;;;5106156;28;20135;-78
2022/07/27 09:11:37;;;;;;;4.93;1.20;;;18.40;99.90;;;;;;5097322;27;20128;-78
2022/07/27 09:14:05;;;;;;;7.43;1.23;;;18.50;99.90;;;;;;5097010;28;20043;-78
2022/07/27 09:16:38;;;;;;;5.27;1.30;;;18.70;99.90;;;;;;5102308;28;20101;-76
2022/07/27 09:19:05;;;;;;;4.50;1.00;;;19.00;99.90;;;;;;5105249;28;20047;-78
2022/07/27 09:21:32;;;;;;;6.93;1.55;;;19.20;99.90;;;;;;5085765;27;20795;-79
2022/07/27 09:23:58;;;;;;;7.57;1.10;;;19.40;99.90;;;;;;5079779;28;20170;-77
2022/07/27 09:26:26;;;;;;;4.38;1.13;;;19.40;99.90;;;;;;5090409;28;20126;-77
2022/07/27 09:28:58;;;;;;;4.25;0.90;;;19.40;99.90;;;;;;5098785;28;20051;-78
2022/07/27 09:31:26;;;;;;;5.15;1.17;;;19.50;99.90;;;;;;5100332;28;20517;-78
2022/07/27 09:33:54;;;;;;;4.75;1.08;;;19.60;99.90;;;;;;5101510;28;20058;-76
2022/07/27 09:36:22;;;;;;;5.93;1.00;;;19.60;99.90;;;;;;5107497;27;20031;-79
2022/07/27 09:39:02;;;;;;;5.88;0.95;;;19.40;99.90;;;;;;5102512;28;20040;-78
2022/07/27 09:41:51;;;;;;;6.40;1.00;;;19.20;99.90;;;;;;5099686;28;20475;-75
2022/07/27 09:44:30;;;;;;;3.40;0.90;;;19.10;99.90;;;;;;5128240;27;20193;-76
2022/07/27 09:46:56;;;;;;;4.15;1.17;;;19.30;99.90;;;;;;5104200;27;20042;-77
2022/07/27 09:49:33;;;;;;;7.63;1.30;;;19.40;99.80;;;;;;5090664;27;20047;-78
2022/07/27 09:52:03;;;;;;;5.45;1.10;;;19.60;99.90;;;;;;5105437;27;20074;-76
2022/07/27 09:54:44;;;;;;;4.07;1.10;;;19.50;99.90;;;;;;5100861;27;20043;-77
2022/07/27 09:57:10;;;;;;;6.25;1.40;;;19.40;99.90;;;;;;5110093;27;20150;-79
2022/07/27 09:59:35;;;;;;;7.03;1.40;;;19.20;99.90;;;;;;5091142;27;20119;-75
2022/07/27 10:02:04;;;;;;;6.35;1.10;;;19.20;99.90;;;;;;5109093;27;20046;-77
2022/07/27 10:04:32;;;;;;;5.72;1.10;;;19.20;99.90;;;;;;5099182;28;20116;-75
2022/07/27 10:06:58;;;;;;;4.32;1.15;;;19.20;99.90;;;;;;5090047;27;20131;-80
2022/07/27 10:09:24;;;;;;;3.75;1.08;;;19.20;99.90;;;;;;5105122;27;20722;-77
2022/07/27 10:11:51;;;;;;;3.65;1.00;;;19.30;99.90;;;;;;5106392;27;20038;-76
2022/07/27 10:14:17;;;;;;;6.22;1.10;;;19.50;99.90;;;;;;5117306;27;20516;-76
2022/07/27 10:16:47;;;;;;;3.55;0.90;;;19.80;99.90;;;;;;5113846;27;20044;-81
2022/07/27 10:19:33;;;;;;;9.93;1.80;;;19.60;99.90;;;;;;5103309;27;20055;-80
2022/07/27 10:21:58;;;;;;;6.80;1.17;;;19.40;99.90;;;;;;5105340;27;20125;-77
2022/07/27 10:24:36;;;;;;;3.10;0.82;;;19.10;99.90;;;;;;5095910;27;20038;-78
2022/07/27 10:27:26;;;;;;;4.65;0.80;;;19.10;99.30;;;;;;5085130;27;20043;-76
2022/07/27 10:29:53;;;;;;;4.13;0.95;;;19.00;99.20;;;;;;5112972;27;20039;-75
2022/07/27 10:32:29;;;;;;;3.00;0.88;;;19.00;99.30;;;;;;5109256;27;20146;-78
2022/07/27 10:34:56;;;;;;;9.60;0.80;;;19.10;99.20;;;;;;5084189;27;20035;-77
2022/07/27 10:37:33;;;;;;;4.32;0.93;;;19.10;99.60;;;;;;5081066;27;20040;-76
2022/07/27 10:43:18;;;;;;;3.00;1.00;;;19.30;99.10;;;;;;5110636;27;20542;-75
2022/07/27 10:45:47;;;;;;;1.88;0.80;;;19.30;99.30;;;;;;5108332;27;20039;-76
2022/07/27 10:48:36;;;;;;;3.80;0.60;;;19.50;99.00;;;;;;5086645;27;20043;-75
2022/07/27 10:51:07;;;;;;;8.00;0.85;;;19.70;98.30;;;;;;5118289;27;20059;-76
2022/07/27 10:53:38;;;;;;;4.10;0.77;;;19.30;98.70;;;;;;5108479;27;20043;-78
2022/07/27 10:56:05;;;;;;;1.92;0.70;;;19.30;98.90;;;;;;5103897;27;20133;-75
2022/07/27 10:58:31;;;;;;;3.47;0.80;;;19.90;99.40;;;;;;5108201;27;20377;-77
2022/07/27 11:01:02;;;;;;;2.28;0.70;;;20.20;98.50;;;;;;5100328;28;20092;-75
2022/07/27 11:03:32;;;;;;;2.28;0.80;;;20.30;97.20;;;;;;5097182;27;20114;-78
2022/07/27 11:06:06;;;;;;;3.25;0.90;;;20.60;97.30;;;;;;5112041;27;20050;-76
2022/07/27 11:08:40;;;;;;;4.37;1.10;;;20.10;98.00;;;;;;5106134;27;20050;-75
2022/07/27 11:11:08;;;;;;;3.17;0.70;;;19.70;99.00;;;;;;5121242;27;20284;-73
2022/07/27 11:14:05;;;;;;;2.92;0.70;;;20.10;98.80;;;;;;5102401;28;20042;-75
2022/07/27 11:16:30;;;;;;;5.75;1.02;;;20.60;98.00;;;;;;5103093;27;20039;-75
2022/07/27 11:19:03;;;;;;;3.85;0.70;;;20.10;97.10;;;;;;5111876;27;20087;-74
2022/07/27 11:21:33;;;;;;;4.05;0.70;;;20.00;97.50;;;;;;5088893;27;20081;-73
2022/07/27 11:24:10;;;;;;;2.22;0.90;;;19.80;98.00;;;;;;5084986;27;20072;-76
2022/07/27 11:26:48;;;;;;;6.32;0.77;;;19.70;98.50;;;;;;5104731;27;20059;-78
2022/07/27 11:29:15;;;;;;;7.57;1.00;;;19.40;98.90;;;;;;5090237;27;20855;-74
2022/07/27 11:31:43;;;;;;;4.63;0.93;;;19.20;99.50;;;;;;5114099;27;20078;-76
2022/07/27 11:34:09;;;;;;;6.32;1.00;;;19.30;99.80;;;;;;5118370;27;20034;-75
2022/07/27 11:36:36;;;;;;;2.67;0.90;;;19.10;99.80;;;;;;5105889;27;20035;-76
2022/07/27 11:39:03;;;;;;;3.25;0.77;;;19.50;99.80;;;;;;5104191;27;20039;-76
2022/07/27 11:41:31;;;;;;;6.45;1.00;;;19.60;99.90;;;;;;5097935;27;20047;-73
2022/07/27 11:44:14;;;;;;;3.78;0.93;;;19.50;99.90;;;;;;5084625;27;20174;-75
2022/07/27 11:46:44;;;;;;;5.45;0.90;;;19.50;99.90;;;;;;5095991;27;20047;-76
2022/07/27 11:49:27;;;;;;;4.18;0.77;;;19.70;99.40;;;;;;5086696;27;20114;-76
2022/07/27 11:51:58;;;;;;;3.55;0.90;;;19.60;98.40;;;;;;5105271;27;20489;-76
2022/07/27 11:54:25;;;;;;;4.53;1.10;;;19.60;98.40;;;;;;5119171;27;20059;-78
2022/07/27 11:57:03;;;;;;;6.03;0.90;;;19.60;99.00;;;;;;5082915;27;20045;-76
2022/07/27 11:59:39;;;;;;;3.58;0.73;;;19.70;99.10;;;;;;5102161;27;20387;-75
2022/07/27 12:02:12;;;;;;;5.20;0.80;;;19.90;99.00;;;;;;5099430;27;20051;-75
2022/07/27 12:04:40;;;;;;;8.15;1.08;;;20.20;99.30;;;;;;5083966;27;20043;-77
2022/07/27 12:07:15;;;;;;;9.30;1.45;;;20.20;99.20;;;;;;5102378;27;20035;-76
2022/07/27 12:10:00;;;;;;;6.80;1.20;;;20.20;99.90;;;;;;5105055;27;20047;-75
2022/07/27 12:12:34;;;;;;;6.35;0.82;;;19.90;99.90;;;;;;5100307;27;20050;-75
2022/07/27 12:15:12;;;;;;;6.20;1.00;;;20.20;99.90;;;;;;5097352;27;20075;-76
2022/07/27 12:17:39;;;;;;;5.72;0.95;;;20.50;99.80;;;;;;5098167;27;20311;-76
2022/07/27 12:20:12;;;;;;;3.60;0.80;;;20.20;99.60;;;;;;5096805;27;20099;-75
2022/07/27 12:22:46;;;;;;;3.83;1.02;;;20.10;99.60;;;;;;5099640;27;20044;-75
2022/07/27 12:25:15;;;;;;;2.33;1.10;;;20.50;99.30;;;;;;5102710;27;20059;-75
2022/07/27 12:27:51;;;;;;;6.80;1.40;;;20.20;98.90;;;;;;5108465;27;20047;-74
2022/07/27 12:30:26;;;;;;;6.68;0.90;;;20.30;99.00;;;;;;5100013;27;20393;-77
2022/07/27 12:32:52;;;;;;;3.65;1.13;;;20.20;99.30;;;;;;5103375;27;20047;-76
2022/07/27 12:35:21;;;;;;;5.28;0.95;;;20.60;99.00;;;;;;5078399;28;20664;-74
2022/07/27 12:37:54;;;;;;;5.97;1.00;;;21.00;98.80;;;;;;5118955;27;20447;-74
2022/07/27 12:40:19;;;;;;;3.22;1.05;;;20.90;98.70;;;;;;5101603;27;20039;-75
2022/07/27 12:42:53;;;;;;;4.50;1.02;;;20.60;98.70;;;;;;5100044;27;22068;-72
2022/07/27 12:45:20;;;;;;;4.60;1.00;;;20.70;98.90;;;;;;5097946;27;20047;-74
2022/07/27 12:47:46;;;;;;;6.22;0.95;;;20.50;98.50;;;;;;5112375;27;20040;-75
2022/07/27 12:50:16;;;;;;;6.55;1.08;;;20.40;98.70;;;;;;5097181;28;20113;-75
2022/07/27 12:52:47;;;;;;;5.00;1.38;;;20.10;99.10;;;;;;5098679;27;20047;-76
2022/07/27 12:55:14;;;;;;;7.97;1.52;;;20.10;99.10;;;;;;5095763;27;20157;-74